Mount Airy, NC

9:02 AM EDT on September 18, 2019 (GMT -0400)
Mount Airy-Surry County

Weather History for KMWK - July, 2019

Change the Weather History Date:

Thursday, July 25, 2019

  Actual Average (WUND) Record (WUND)
Temperature  
Mean Temperature 70 °F -  
Max Temperature 82 °F - - (-1)
Min Temperature 58 °F - - (-1)
Cooling Degree Days 5    
Growing Degree Days 20 (Base 50)    
Moisture  
Dew Point 60 °F    
Average Humidity 70    
Maximum Humidity 90    
Minimum Humidity 42    
Precipitation  
Precipitation 0.00 in - - ()
Sea Level Pressure  
Sea Level Pressure 30.18 in    
Wind  
Wind Speed 1 mph (ENE)    
Max Wind Speed 6 mph    
Max Gust Speed -    
Visibility 10 miles    
Events      
Averages and records for this station are not official NWS values.
T = Trace of Precipitation, MM = Missing Value Source: NWS Daily Summary

Daily Weather History Graph

Daily Weather History Graph

Search for Another Location

Airport or City:

Astronomy

Jul. 25, 2019 Rise Set
Actual Time 6:22 AM EDT 8:34 PM EDT
Civil Twilight 5:53 AM EDT 9:03 PM EDT
Nautical Twilight 5:18 AM EDT 9:38 PM EDT
Astronomical Twilight 4:39 AM EDT 10:16 PM EDT
Moon 1:01 AM EDT (7/25) 2:18 PM EDT (7/25)
Length of Visible Light 15h 09m
Length of Day
14h 11m
Last Quarter, 44% of the Moon is Illuminated
Jul 25
Last Quarter
Jul 31
New
Aug 7
First Quarter
Aug 15
Full
Aug 23
Last Quarter

Hourly Weather History & Observations

Time (EDT) Temp. Heat Index Dew Point Humidity Pressure Visibility Wind Dir Wind Speed Gust Speed Precip Events Conditions
12:00 AM 63.5 °F - 58.1 °F 83% 30.11 in 10.0 mi Calm Calm - N/A   Clear
12:20 AM 63.7 °F - 58.3 °F 83% 30.11 in 10.0 mi Calm Calm - N/A   Clear
12:40 AM 63.9 °F - 58.1 °F 81% 30.11 in 10.0 mi Calm Calm - N/A   Clear
1:00 AM 63.5 °F - 57.6 °F 81% 30.11 in 10.0 mi Calm Calm - N/A   Clear
1:20 AM 64.0 °F - 57.4 °F 79% 30.12 in 10.0 mi NNW 3.5 mph - N/A   Clear
1:40 AM 64.6 °F - 57.7 °F 78% 30.12 in 10.0 mi Calm Calm - N/A   Clear
2:00 AM 64.2 °F - 57.6 °F 79% 30.12 in 10.0 mi Calm Calm - N/A   Clear
2:20 AM 64.2 °F - 57.7 °F 79% 30.12 in 10.0 mi Calm Calm - N/A   Clear
2:40 AM 63.0 °F - 57.4 °F 82% 30.12 in 10.0 mi Calm Calm - N/A   Clear
3:00 AM 61.3 °F - 57.2 °F 86% 30.12 in 10.0 mi Calm Calm - N/A   Clear
3:20 AM 60.4 °F - 56.8 °F 88% 30.13 in 10.0 mi Calm Calm - N/A   Clear
3:40 AM 61.2 °F - 57.2 °F 87% 30.13 in 10.0 mi Calm Calm - N/A   Clear
4:00 AM 60.4 °F - 56.7 °F 87% 30.12 in 10.0 mi Calm Calm - N/A   Clear
4:20 AM 60.3 °F - 56.8 °F 88% 30.13 in 10.0 mi Calm Calm - N/A   Clear
4:40 AM 60.3 °F - 56.7 °F 88% 30.13 in 10.0 mi Calm Calm - N/A   Clear
5:20 AM 59.7 °F - 56.5 °F 89% 30.14 in 10.0 mi Calm Calm - N/A   Clear
5:40 AM 59.2 °F - 56.3 °F 90% 30.14 in 10.0 mi Calm Calm - N/A   Clear
6:00 AM 58.8 °F - 55.9 °F 90% 30.15 in 10.0 mi Calm Calm - N/A   Clear
6:20 AM 58.8 °F - 55.9 °F 90% 30.15 in 10.0 mi Calm Calm - N/A   Scattered Clouds
6:40 AM 59.0 °F - 56.1 °F 90% 30.16 in 10.0 mi Calm Calm - N/A   Scattered Clouds
7:00 AM 59.9 °F - 56.7 °F 89% 30.17 in 10.0 mi Calm Calm - N/A   Scattered Clouds
7:20 AM 60.3 °F - 57.2 °F 90% 30.17 in 10.0 mi Calm Calm - N/A   Clear
7:40 AM 62.8 °F - 58.3 °F 85% 30.18 in 10.0 mi Calm Calm - N/A   Clear
8:00 AM 63.7 °F - 59.4 °F 86% 30.19 in 10.0 mi Calm Calm - N/A   Clear
8:20 AM 64.6 °F - 59.4 °F 83% 30.19 in 10.0 mi Calm Calm - N/A   Clear
8:40 AM 66.6 °F - 60.3 °F 80% 30.20 in 10.0 mi Calm Calm - N/A   Clear
9:00 AM 68.2 °F - 61.3 °F 79% 30.20 in 10.0 mi Calm Calm - N/A   Clear
9:20 AM 70.3 °F - 62.2 °F 75% 30.20 in 10.0 mi NNW 3.5 mph - N/A   Clear
9:40 AM 72.0 °F - 63.3 °F 74% 30.21 in 10.0 mi Calm Calm - N/A   Clear
10:00 AM 73.6 °F - 64.0 °F 72% 30.21 in 10.0 mi Calm Calm - N/A   Clear
10:20 AM 75.0 °F - 64.9 °F 71% 30.20 in 10.0 mi Calm Calm - N/A   Clear
10:40 AM 77.9 °F - 63.7 °F 61% 30.20 in 10.0 mi Calm Calm - N/A   Clear
11:00 AM 78.1 °F - 62.6 °F 59% 30.21 in 10.0 mi East 5.8 mph - N/A   Clear
11:20 AM 78.4 °F - 62.2 °F 57% 30.21 in 10.0 mi SE 3.5 mph - N/A   Clear
11:40 AM 79.5 °F - 62.8 °F 56% 30.22 in 10.0 mi NNE 3.5 mph - N/A   Clear
12:00 PM 80.1 °F 81.2 °F 62.2 °F 54% 30.22 in 10.0 mi ESE 3.5 mph - N/A   Scattered Clouds
12:20 PM 80.8 °F 81.8 °F 61.9 °F 52% 30.21 in 10.0 mi ESE 3.5 mph - N/A   Scattered Clouds
12:40 PM 79.9 °F - 61.5 °F 53% 30.21 in 10.0 mi SSE 4.6 mph - N/A   Clear
1:00 PM 80.1 °F 81.1 °F 61.0 °F 52% 30.21 in 10.0 mi Calm Calm - N/A   Clear
1:20 PM 81.5 °F 82.0 °F 59.9 °F 48% 30.21 in 10.0 mi ESE 4.6 mph - N/A   Clear
1:40 PM 80.8 °F 81.4 °F 60.3 °F 49% 30.21 in 10.0 mi NW 3.5 mph - N/A   Scattered Clouds
2:00 PM 78.8 °F - 64.0 °F 60% 30.20 in 10.0 mi Calm Calm - N/A   Mostly Cloudy
2:20 PM 78.8 °F - 63.7 °F 60% 30.20 in 10.0 mi North 3.5 mph - N/A   Scattered Clouds
2:40 PM 79.9 °F - 62.2 °F 55% 30.20 in 10.0 mi NNW 3.5 mph - N/A   Scattered Clouds
3:00 PM 79.7 °F - 62.4 °F 55% 30.20 in 10.0 mi Calm Calm - N/A   Scattered Clouds
3:20 PM 80.8 °F 81.4 °F 60.3 °F 49% 30.20 in 10.0 mi West 3.5 mph - N/A   Clear
3:40 PM 82.6 °F 82.9 °F 60.3 °F 47% 30.19 in 10.0 mi ENE 3.5 mph - N/A   Clear
4:00 PM 80.6 °F 81.2 °F 59.9 °F 49% 30.19 in 10.0 mi NE 4.6 mph - N/A   Mostly Cloudy
4:20 PM 80.1 °F 81.1 °F 60.8 °F 52% 30.19 in 10.0 mi Calm Calm - N/A   Scattered Clouds
4:40 PM 79.5 °F - 58.8 °F 49% 30.19 in 10.0 mi Calm Calm - N/A   Scattered Clouds
5:00 PM 81.5 °F 81.5 °F 57.7 °F 44% 30.19 in 10.0 mi Calm Calm - N/A   Clear
5:20 PM 82.4 °F 82.0 °F 57.2 °F 42% 30.19 in 10.0 mi Calm Calm - N/A   Clear
5:40 PM 82.0 °F 82.1 °F 58.8 °F 45% 30.19 in 10.0 mi ESE 3.5 mph - N/A   Clear
6:00 PM 82.0 °F 81.7 °F 57.0 °F 42% 30.19 in 10.0 mi Calm Calm - N/A   Clear
6:20 PM 81.9 °F 81.9 °F 58.6 °F 45% 30.19 in 10.0 mi ESE 4.6 mph - N/A   Clear
6:40 PM 81.0 °F 81.3 °F 58.8 °F 47% 30.19 in 10.0 mi ESE 3.5 mph - N/A   Scattered Clouds
7:00 PM 81.0 °F 81.2 °F 58.3 °F 46% 30.20 in 10.0 mi East 3.5 mph - N/A   Clear
7:20 PM 80.2 °F 81.0 °F 60.3 °F 50% 30.19 in 10.0 mi East 5.8 mph - N/A   Clear
7:40 PM 79.7 °F - 62.8 °F 56% 30.21 in 10.0 mi East 3.5 mph - N/A   Clear
8:00 PM 78.1 °F - 64.8 °F 63% 30.21 in 10.0 mi Calm Calm - N/A   Clear
8:20 PM 75.2 °F - 63.9 °F 68% 30.21 in 10.0 mi Calm Calm - N/A   Clear
8:40 PM 72.3 °F - 64.0 °F 75% 30.21 in 10.0 mi Calm Calm - N/A   Clear
9:00 PM 72.3 °F - 63.7 °F 74% 30.22 in 10.0 mi Calm Calm - N/A   Clear
9:20 PM 70.0 °F - 65.5 °F 86% 30.22 in 10.0 mi Calm Calm - N/A   Clear
9:40 PM 69.8 °F - 64.4 °F 83% 30.23 in 10.0 mi Calm Calm - N/A   Clear
10:00 PM 69.6 °F - 63.7 °F 81% 30.23 in 10.0 mi Calm Calm - N/A   Clear
10:20 PM 69.1 °F - 63.1 °F 81% 30.24 in 10.0 mi Calm Calm - N/A   Clear
10:40 PM 66.4 °F - 62.8 °F 88% 30.24 in 10.0 mi Calm Calm - N/A   Clear
11:00 PM 67.1 °F - 62.8 °F 86% 30.24 in 10.0 mi Calm Calm - N/A   Clear
11:20 PM 66.0 °F - 62.1 °F 87% 30.25 in 10.0 mi Calm Calm - N/A   Clear
11:40 PM 66.0 °F - 61.9 °F 86% 30.25 in 10.0 mi Calm Calm - N/A   Clear